createdAt,value
2019-01-21T00:01:16.359Z,87.46
2019-01-21T00:03:47.142Z,87.21
2019-01-21T00:21:29.860Z,87.38
2019-01-21T00:24:00.315Z,87.47
2019-01-21T00:26:30.699Z,87.91
2019-01-21T00:29:02.024Z,87.40
2019-01-21T00:31:32.517Z,87.19
2019-01-21T00:34:03.011Z,87.17
2019-01-21T00:36:33.506Z,87.42
2019-01-21T00:39:06.434Z,87.19
2019-01-21T00:41:37.302Z,87.01
2019-01-21T00:44:07.795Z,87.42
2019-01-21T00:46:38.187Z,87.26
2019-01-21T00:49:09.843Z,87.42
2019-01-21T00:51:40.360Z,87.50
2019-01-21T00:54:11.133Z,87.32
2019-01-21T00:56:42.043Z,87.46
2019-01-21T00:59:12.962Z,87.58
2019-01-21T01:01:43.719Z,87.33
2019-01-21T01:04:14.275Z,87.19
2019-01-21T01:06:45.104Z,87.33
2019-01-21T01:09:16.172Z,87.62
2019-01-21T01:11:46.766Z,87.66
2019-01-21T01:14:17.276Z,87.52
2019-01-21T01:16:47.798Z,87.58
2019-01-21T01:19:22.869Z,87.96
2019-01-21T01:21:53.507Z,87.99
2019-01-21T01:24:24.418Z,88.36
2019-01-21T01:26:54.905Z,88.51
2019-01-21T01:29:25.357Z,88.74
2019-01-21T01:31:55.817Z,88.78
2019-01-21T01:34:26.162Z,88.71
2019-01-21T01:36:56.539Z,88.90
2019-01-21T01:39:27.210Z,88.78
2019-01-21T01:41:57.703Z,88.85
2019-01-21T01:44:28.412Z,88.74
2019-01-21T01:46:58.878Z,88.87
2019-01-21T01:49:29.313Z,88.83
2019-01-21T01:51:59.789Z,88.81
2019-01-21T01:54:30.321Z,89.23
2019-01-21T01:57:00.794Z,89.20
2019-01-21T01:59:31.758Z,89.05
2019-01-21T02:02:02.243Z,89.13
2019-01-21T02:04:32.981Z,88.96
2019-01-21T02:07:03.502Z,88.98
2019-01-21T02:09:34.010Z,89.70
2019-01-21T02:12:04.787Z,89.84
2019-01-21T02:14:35.504Z,89.60
2019-01-21T02:17:06.023Z,89.38
2019-01-21T02:19:39.896Z,89.21
2019-01-21T02:22:12.282Z,89.15
2019-01-21T02:24:46.271Z,88.40
2019-01-21T02:28:21.318Z,88.68
2019-01-21T02:31:52.739Z,88.69
2019-01-21T02:34:58.755Z,88.90
2019-01-21T02:38:34.676Z,88.80
2019-01-21T02:42:08.073Z,88.88
2019-01-21T02:45:29.314Z,89.33
2019-01-21T02:48:38.751Z,89.83
2019-01-21T02:52:03.821Z,90.12
2019-01-21T02:54:56.945Z,89.28
2019-01-21T02:58:36.434Z,88.91
2019-01-21T03:02:10.813Z,88.84
2019-01-21T03:05:53.364Z,88.76
2019-01-21T03:09:15.395Z,88.12
2019-01-21T03:12:21.698Z,88.55
2019-01-21T03:15:51.396Z,88.45
2019-01-21T03:19:32.321Z,88.22
2019-01-21T03:23:09.176Z,88.34
2019-01-21T03:26:34.960Z,88.38
2019-01-21T03:30:04.689Z,88.23
2019-01-21T03:33:40.390Z,87.91
2019-01-21T03:36:52.318Z,87.75
2019-01-21T03:40:03.449Z,87.50
2019-01-21T03:42:54.698Z,87.37
2019-01-21T03:46:07.817Z,87.21
2019-01-21T03:48:51.222Z,87.44
2019-01-21T03:52:19.240Z,87.61
2019-01-21T03:54:56.421Z,87.55
2019-01-21T03:58:12.782Z,86.81
2019-01-21T04:01:38.718Z,86.66
2019-01-21T04:04:57.057Z,86.71
2019-01-21T04:08:30.613Z,86.86
2019-01-21T04:11:41.329Z,86.96
2019-01-21T04:14:56.572Z,87.05
2019-01-21T04:18:16.196Z,87.45
2019-01-21T04:21:49.292Z,87.60
2019-01-21T04:25:09.942Z,87.81
2019-01-21T04:28:42.554Z,87.54
2019-01-21T04:31:59.689Z,86.76
2019-01-21T04:34:52.357Z,86.52
2019-01-21T04:38:20.091Z,86.67
2019-01-21T04:42:05.464Z,86.84
2019-01-21T04:45:03.390Z,87.03
2019-01-21T04:48:32.923Z,86.92
2019-01-21T04:51:25.081Z,86.83
2019-01-21T04:55:08.822Z,86.81
2019-01-21T04:57:58.654Z,87.05
2019-01-21T05:01:31.455Z,86.95
2019-01-21T05:04:45.703Z,86.85
2019-01-21T05:08:02.398Z,86.86
2019-01-21T05:11:05.192Z,87.11
2019-01-21T05:14:30.596Z,87.83
2019-01-21T05:18:05.363Z,87.71
2019-01-21T05:21:34.619Z,88.03
2019-01-21T05:25:13.892Z,87.58
2019-01-21T05:28:29.079Z,87.71
2019-01-21T05:32:04.301Z,88.46
2019-01-21T05:35:34.016Z,87.52
2019-01-21T05:38:22.870Z,87.89
2019-01-21T05:42:06.117Z,88.24
2019-01-21T05:45:12.691Z,88.71
2019-01-21T05:48:49.022Z,88.45
2019-01-21T05:52:20.086Z,88.51
2019-01-21T05:55:48.971Z,87.59
2019-01-21T05:59:28.784Z,87.32
2019-01-21T06:03:02.247Z,87.11
2019-01-21T06:06:15.793Z,87.32
2019-01-21T06:10:01.749Z,87.36
2019-01-21T06:13:10.507Z,87.20
2019-01-21T06:16:15.591Z,87.42
2019-01-21T06:19:29.971Z,88.30
2019-01-21T06:23:02.609Z,87.85
2019-01-21T06:26:31.597Z,87.76
2019-01-21T06:29:23.214Z,87.57
2019-01-21T06:32:35.842Z,87.85
2019-01-21T06:36:13.398Z,88.21
2019-01-21T06:39:27.682Z,87.92
2019-01-21T06:42:38.981Z,87.76
2019-01-21T06:46:02.266Z,87.62
2019-01-21T06:49:25.624Z,87.91
2019-01-21T06:52:51.144Z,87.65
2019-01-21T06:56:04.645Z,87.94
2019-01-21T06:59:31.073Z,87.86
2019-01-21T07:02:48.531Z,87.68
2019-01-21T07:06:00.510Z,87.84
2019-01-21T07:09:22.962Z,88.05
2019-01-21T07:12:49.567Z,87.54
2019-01-21T07:15:54.849Z,87.41
2019-01-21T07:19:25.992Z,87.62
2019-01-21T07:22:40.247Z,87.94
2019-01-21T07:25:58.303Z,88.08
2019-01-21T07:29:27.222Z,87.77
2019-01-21T07:33:07.271Z,88.26
2019-01-21T07:36:54.908Z,88.11
2019-01-21T07:39:45.457Z,88.52
2019-01-21T07:43:33.028Z,88.77
2019-01-21T07:46:40.189Z,88.11
2019-01-21T07:49:49.216Z,88.23
2019-01-21T07:53:17.959Z,87.90
2019-01-21T07:56:51.324Z,86.71
2019-01-21T08:00:10.694Z,85.81
2019-01-21T08:04:06.267Z,83.93
2019-01-21T08:07:35.091Z,84.67
2019-01-21T08:10:37.606Z,82.87
2019-01-21T08:14:07.746Z,80.67
2019-01-21T08:17:34.676Z,79.41
2019-01-21T08:20:21.872Z,76.29
2019-01-21T08:23:39.398Z,75.86
2019-01-21T08:26:57.030Z,74.81
2019-01-21T08:30:17.833Z,70.36
2019-01-21T08:33:42.984Z,70.08
2019-01-21T08:36:43.464Z,67.87
2019-01-21T08:40:13.318Z,67.25
2019-01-21T08:43:37.079Z,68.21
2019-01-21T08:46:56.266Z,66.79
2019-01-21T08:50:18.390Z,65.05
2019-01-21T08:53:57.642Z,65.55
2019-01-21T08:57:15.462Z,66.03
2019-01-21T09:00:20.050Z,64.96
2019-01-21T09:03:28.508Z,66.42
2019-01-21T09:06:39.322Z,67.98
2019-01-21T09:09:36.108Z,69.32
2019-01-21T09:13:08.200Z,71.31
2019-01-21T09:16:16.352Z,72.27
2019-01-21T09:19:37.199Z,73.65
2019-01-21T09:22:46.677Z,76.28
2019-01-21T09:26:18.535Z,74.25
2019-01-21T09:29:58.625Z,76.52
2019-01-21T09:33:26.352Z,75.82
2019-01-21T09:37:05.866Z,74.53
2019-01-21T09:40:40.371Z,74.55
2019-01-21T09:44:12.610Z,76.15
2019-01-21T09:46:55.581Z,76.79
2019-01-21T09:49:23.611Z,77.28
2019-01-21T09:52:18.589Z,75.21
2019-01-21T09:54:50.367Z,75.56
2019-01-21T09:57:27.976Z,75.88
2019-01-21T10:00:01.887Z,75.12
2019-01-21T10:02:42.341Z,75.01
2019-01-21T10:05:15.480Z,75.20
2019-01-21T10:08:08.030Z,74.72
2019-01-21T10:11:50.056Z,75.34
2019-01-21T10:15:30.067Z,75.29
2019-01-21T10:18:21.362Z,74.82
2019-01-21T10:22:04.088Z,73.70
2019-01-21T10:25:10.831Z,73.41
2019-01-21T10:28:27.459Z,72.81
2019-01-21T10:31:39.428Z,73.82
2019-01-21T10:34:48.219Z,73.91
2019-01-21T10:38:13.781Z,74.28
2019-01-21T10:41:09.568Z,73.91
2019-01-21T10:44:19.443Z,71.07
2019-01-21T10:47:22.272Z,72.30
2019-01-21T10:50:19.974Z,74.34
2019-01-21T10:53:55.266Z,72.88
2019-01-21T10:57:15.745Z,74.11
2019-01-21T11:00:28.238Z,73.30
2019-01-21T11:03:49.437Z,72.54
2019-01-21T11:07:09.212Z,70.79
2019-01-21T11:10:19.598Z,73.79
2019-01-21T11:13:31.290Z,71.39
2019-01-21T11:16:22.784Z,72.41
2019-01-21T11:19:48.730Z,73.25
2019-01-21T11:23:00.667Z,71.60
2019-01-21T11:26:47.005Z,73.19
2019-01-21T11:29:39.179Z,73.56
2019-01-21T11:33:22.916Z,73.69
2019-01-21T11:36:51.979Z,73.73
2019-01-21T11:40:31.240Z,72.81
2019-01-21T11:43:56.732Z,74.63
2019-01-21T11:47:03.663Z,73.46
2019-01-21T11:50:02.129Z,72.95
2019-01-21T11:53:30.098Z,75.14
2019-01-21T11:56:25.662Z,72.87
2019-01-21T11:59:29.296Z,74.80
2019-01-21T12:02:44.378Z,72.96
2019-01-21T12:06:03.714Z,74.26
2019-01-21T12:09:38.125Z,72.71
2019-01-21T12:12:43.240Z,72.73
2019-01-21T12:16:09.456Z,73.46
2019-01-21T12:19:33.453Z,72.48
2019-01-21T12:22:53.848Z,74.23
2019-01-21T12:25:58.874Z,74.76
2019-01-21T12:29:09.869Z,73.88
2019-01-21T12:32:03.413Z,72.96
2019-01-21T12:34:54.964Z,72.27
2019-01-21T12:38:05.945Z,73.07
2019-01-21T12:41:24.718Z,71.29
2019-01-21T12:44:22.409Z,64.46
2019-01-21T12:47:16.063Z,60.96
2019-01-21T12:50:48.458Z,57.44
2019-01-21T12:54:13.262Z,55.95
2019-01-21T12:57:44.481Z,53.60
2019-01-21T13:01:15.073Z,54.74
2019-01-21T13:04:09.094Z,55.12
2019-01-21T13:07:16.031Z,53.60
2019-01-21T13:10:31.896Z,52.04
2019-01-21T13:14:08.693Z,51.67
2019-01-21T13:16:56.151Z,51.16
2019-01-21T13:20:30.919Z,54.62
2019-01-21T13:23:29.601Z,52.90
2019-01-21T13:26:43.103Z,53.79
2019-01-21T13:29:50.051Z,52.59
2019-01-21T13:32:52.613Z,53.73
2019-01-21T13:36:26.267Z,52.16
2019-01-21T13:39:50.385Z,53.32
2019-01-21T13:42:46.297Z,52.71
2019-01-21T13:46:37.761Z,53.11
2019-01-21T13:49:38.655Z,51.77
2019-01-21T13:52:45.011Z,52.85
2019-01-21T13:55:49.864Z,51.77
2019-01-21T13:59:32.110Z,52.96
2019-01-21T14:02:25.031Z,52.46
2019-01-21T14:05:42.405Z,52.88
2019-01-21T14:08:56.920Z,52.91
2019-01-21T14:12:16.010Z,52.51
2019-01-21T14:15:45.247Z,53.47
2019-01-21T14:19:30.027Z,53.29
2019-01-21T14:22:45.259Z,54.55
2019-01-21T14:26:19.196Z,54.90
2019-01-21T14:29:49.840Z,52.66
2019-01-21T14:32:47.580Z,54.65
2019-01-21T14:36:06.153Z,55.60
2019-01-21T14:39:48.008Z,54.66
2019-01-21T14:42:57.176Z,53.60
2019-01-21T14:46:31.375Z,55.22
2019-01-21T14:49:34.889Z,55.81
2019-01-21T14:52:57.708Z,56.10
2019-01-21T14:55:48.512Z,56.62
2019-01-21T14:59:43.896Z,57.93
2019-01-21T15:02:41.925Z,59.57
2019-01-21T15:06:34.509Z,60.35
2019-01-21T15:09:59.078Z,60.80
2019-01-21T15:13:07.294Z,62.44
2019-01-21T15:16:30.600Z,63.69
2019-01-21T15:19:34.983Z,64.58
2019-01-21T15:23:06.348Z,66.60
2019-01-21T15:26:03.598Z,69.63
2019-01-21T15:29:58.512Z,71.37
2019-01-21T15:33:36.093Z,72.40
2019-01-21T15:36:29.494Z,73.91
2019-01-21T15:39:36.504Z,75.10
2019-01-21T15:42:40.785Z,75.73
2019-01-21T15:45:51.802Z,76.92
2019-01-21T15:49:40.509Z,77.88
2019-01-21T15:52:45.305Z,77.81
2019-01-21T15:55:54.515Z,78.24
2019-01-21T15:59:18.610Z,79.15
2019-01-21T16:02:08.686Z,79.54
2019-01-21T16:05:17.708Z,80.39
2019-01-21T16:08:20.555Z,80.62
2019-01-21T16:11:25.750Z,81.22
2019-01-21T16:14:15.350Z,81.95
2019-01-21T16:17:27.532Z,82.29
2019-01-21T16:20:35.275Z,83.38
2019-01-21T16:23:56.930Z,84.16
2019-01-21T16:26:49.228Z,83.75
2019-01-21T16:29:59.728Z,83.80
2019-01-21T16:33:15.761Z,83.83
2019-01-21T16:36:10.922Z,83.85
2019-01-21T16:39:32.130Z,83.50
2019-01-21T16:42:20.199Z,83.34
2019-01-21T16:44:50.952Z,83.21
2019-01-21T16:47:21.800Z,83.72
2019-01-21T16:49:52.553Z,84.03
2019-01-21T16:52:23.366Z,84.37
2019-01-21T16:54:54.217Z,84.10
2019-01-21T16:57:25.005Z,83.75
2019-01-21T16:59:55.795Z,84.71
2019-01-21T17:02:26.602Z,85.29
2019-01-21T17:04:57.340Z,84.80
2019-01-21T17:07:28.157Z,84.80
2019-01-21T17:09:59.175Z,85.06
2019-01-21T17:12:30.437Z,85.16
2019-01-21T17:15:01.164Z,85.45
2019-01-21T17:17:32.331Z,85.64
2019-01-21T17:20:03.105Z,85.83
2019-01-21T17:22:33.842Z,85.93
2019-01-21T17:25:04.889Z,85.93
2019-01-21T17:27:35.677Z,86.34
2019-01-21T17:30:08.810Z,85.90
2019-01-21T17:32:39.781Z,86.06
2019-01-21T17:35:12.323Z,86.86
2019-01-21T17:37:42.698Z,86.47
2019-01-21T17:40:15.683Z,86.92
2019-01-21T17:42:46.005Z,86.78
2019-01-21T17:45:19.463Z,86.67
2019-01-21T17:47:49.845Z,87.17
2019-01-21T17:50:20.384Z,86.59
2019-01-21T17:52:50.662Z,86.35
2019-01-21T17:55:23.439Z,86.44
2019-01-21T17:57:53.990Z,86.53
2019-01-21T18:00:24.630Z,86.74
2019-01-21T18:02:55.276Z,86.92
2019-01-21T18:05:25.803Z,87.11
2019-01-21T18:07:56.263Z,88.02
2019-01-21T18:10:26.620Z,87.47
2019-01-21T18:12:57.091Z,87.44
2019-01-21T18:15:27.506Z,87.22
2019-01-21T18:17:58.018Z,86.70
2019-01-21T18:20:28.434Z,86.86
2019-01-21T18:22:58.934Z,86.91
2019-01-21T18:25:29.271Z,87.41
2019-01-21T18:27:59.742Z,87.79
2019-01-21T18:30:30.687Z,87.95
2019-01-21T18:33:01.466Z,88.26
2019-01-21T18:35:32.303Z,88.36
2019-01-21T18:38:04.467Z,88.33
2019-01-21T18:40:34.877Z,88.60
2019-01-21T18:43:05.493Z,88.61
2019-01-21T18:45:36.369Z,88.53
2019-01-21T18:48:07.504Z,88.71
2019-01-21T18:50:38.581Z,88.32
2019-01-21T18:53:09.340Z,88.58
2019-01-21T18:55:40.179Z,88.34
2019-01-21T18:58:10.881Z,88.29
2019-01-21T19:00:41.889Z,88.41
2019-01-21T19:03:13.023Z,88.54
2019-01-21T19:05:43.793Z,88.40
2019-01-21T19:08:15.069Z,88.36
2019-01-21T19:10:45.839Z,88.50
2019-01-21T19:13:16.665Z,89.04
2019-01-21T19:15:49.742Z,88.92
2019-01-21T19:18:20.442Z,88.42
2019-01-21T19:20:51.602Z,87.84
2019-01-21T19:23:23.223Z,87.87
2019-01-21T19:25:54.456Z,88.81
2019-01-21T19:28:26.815Z,88.35
2019-01-21T19:30:58.076Z,88.79
2019-01-21T19:33:28.925Z,88.82
2019-01-21T19:36:00.049Z,88.56
2019-01-21T19:38:32.063Z,89.03
2019-01-21T19:41:07.327Z,89.46
2019-01-21T19:43:37.832Z,89.74
2019-01-21T19:46:08.193Z,89.76
2019-01-21T19:48:38.885Z,89.81
2019-01-21T19:51:09.205Z,89.71
2019-01-21T19:53:39.588Z,88.64
2019-01-21T19:56:10.057Z,87.56
2019-01-21T19:58:40.663Z,86.98
2019-01-21T20:01:10.818Z,87.12
2019-01-21T20:03:41.190Z,87.32
2019-01-21T20:06:11.465Z,88.50
2019-01-21T20:08:41.697Z,88.76
2019-01-21T20:11:12.419Z,88.62
2019-01-21T20:13:42.697Z,88.98
2019-01-21T20:16:12.893Z,89.18
2019-01-21T20:18:43.311Z,89.19
2019-01-21T20:21:13.595Z,88.63
2019-01-21T20:23:43.706Z,88.61
2019-01-21T20:26:13.965Z,89.24
2019-01-21T20:28:44.269Z,89.50
2019-01-21T20:31:14.850Z,88.41
2019-01-21T20:33:45.058Z,87.91
2019-01-21T20:36:15.305Z,88.14
2019-01-21T20:38:45.522Z,87.80
2019-01-21T20:41:15.948Z,86.93
2019-01-21T20:43:46.335Z,86.85
2019-01-21T20:46:16.696Z,86.94
2019-01-21T20:48:47.161Z,87.24
2019-01-21T20:51:17.487Z,87.72
2019-01-21T20:53:47.832Z,87.93
2019-01-21T20:56:18.259Z,88.05
2019-01-21T20:58:48.625Z,88.40
2019-01-21T21:01:18.870Z,88.03
2019-01-21T21:03:49.340Z,88.51
2019-01-21T21:06:19.671Z,88.69
2019-01-21T21:08:49.975Z,88.17
2019-01-21T21:11:20.246Z,88.04
2019-01-21T21:13:50.575Z,87.96
2019-01-21T21:16:21.395Z,87.56
2019-01-21T21:18:52.004Z,87.76
2019-01-21T21:21:22.712Z,87.59
2019-01-21T21:23:53.304Z,87.58
2019-01-21T21:26:24.002Z,87.83
2019-01-21T21:28:54.631Z,88.35
2019-01-21T21:31:25.280Z,88.59
2019-01-21T21:33:56.326Z,88.47
2019-01-21T21:36:27.062Z,88.51
2019-01-21T21:38:57.728Z,88.21
2019-01-21T21:41:28.429Z,87.83
2019-01-21T21:43:59.137Z,87.50
2019-01-21T21:46:29.870Z,88.07
2019-01-21T21:49:00.860Z,87.81
2019-01-21T21:51:31.488Z,87.66
2019-01-21T21:54:01.998Z,88.32
2019-01-21T21:56:32.664Z,88.39
2019-01-21T21:59:03.295Z,88.21
2019-01-21T22:01:34.172Z,87.92
2019-01-21T22:04:05.000Z,88.16
2019-01-21T22:06:35.621Z,87.88
2019-01-21T22:09:08.494Z,87.98
2019-01-21T22:11:39.520Z,87.93
2019-01-21T22:14:10.114Z,87.51
2019-01-21T22:16:41.071Z,88.11
2019-01-21T22:19:11.781Z,87.63
2019-01-21T22:21:42.388Z,89.15
2019-01-21T22:24:13.158Z,88.57
2019-01-21T22:26:43.877Z,87.28
2019-01-21T22:29:14.495Z,87.28
2019-01-21T22:31:45.993Z,87.41
2019-01-21T22:34:16.618Z,87.62
2019-01-21T22:36:47.554Z,88.17
2019-01-21T22:39:18.198Z,87.64
2019-01-21T22:41:48.994Z,86.51
2019-01-21T22:44:20.257Z,85.97
2019-01-21T22:46:51.221Z,85.17
2019-01-21T22:49:21.910Z,85.53
2019-01-21T22:51:52.773Z,85.71
2019-01-21T22:54:23.354Z,85.98
2019-01-21T22:56:54.081Z,86.05
2019-01-21T22:59:24.702Z,85.90
2019-01-21T23:01:55.387Z,86.34
2019-01-21T23:04:26.015Z,86.54
2019-01-21T23:06:56.796Z,86.78
2019-01-21T23:09:27.814Z,86.76
2019-01-21T23:11:58.522Z,86.84
2019-01-21T23:14:29.185Z,86.94
2019-01-21T23:17:00.114Z,86.64
2019-01-21T23:19:30.858Z,86.52
2019-01-21T23:22:01.975Z,86.21
2019-01-21T23:24:32.723Z,86.14
2019-01-21T23:27:03.376Z,85.94
2019-01-21T23:29:34.196Z,86.98
2019-01-21T23:32:04.760Z,87.17
2019-01-21T23:34:35.553Z,86.93
2019-01-21T23:37:06.151Z,86.51
2019-01-21T23:39:37.039Z,86.44
2019-01-21T23:42:08.063Z,86.34
2019-01-21T23:44:38.719Z,85.50
2019-01-21T23:47:09.332Z,85.74
2019-01-21T23:49:39.625Z,86.05
2019-01-21T23:52:09.914Z,86.51
2019-01-21T23:54:40.043Z,86.58
2019-01-21T23:57:10.306Z,86.68
2019-01-21T23:59:40.798Z,86.45
